createdAt,value
2022-12-19T00:00:20.459Z,75.34
2022-12-19T00:03:12.535Z,75.33
2022-12-19T00:05:42.858Z,75.36
2022-12-19T00:08:24.717Z,75.40
2022-12-19T00:11:01.026Z,75.45
2022-12-19T00:13:44.883Z,75.42
2022-12-19T00:16:24.014Z,75.44
2022-12-19T00:19:00.406Z,75.50
2022-12-19T00:21:35.092Z,75.44
2022-12-19T00:24:18.413Z,75.51
2022-12-19T00:27:01.419Z,75.51
2022-12-19T00:29:39.182Z,75.47
2022-12-19T00:32:23.082Z,75.45
2022-12-19T00:37:49.246Z,75.47
2022-12-19T00:40:37.016Z,75.57
2022-12-19T00:43:12.238Z,75.65
2022-12-19T00:45:43.949Z,75.61
2022-12-19T00:48:27.188Z,75.59
2022-12-19T00:51:08.695Z,75.52
2022-12-19T00:53:39.973Z,75.53
2022-12-19T00:56:37.076Z,75.56
2022-12-19T00:59:13.537Z,75.46
2022-12-19T01:01:51.253Z,75.33
2022-12-19T01:04:33.374Z,75.26
2022-12-19T01:07:11.888Z,75.32
2022-12-19T01:09:51.639Z,75.26
2022-12-19T01:12:44.048Z,75.30
2022-12-19T01:15:21.068Z,75.31
2022-12-19T01:18:04.883Z,75.23
2022-12-19T01:20:47.519Z,75.23
2022-12-19T01:23:22.633Z,75.33
2022-12-19T01:25:57.524Z,75.44
2022-12-19T01:28:29.377Z,75.43
2022-12-19T01:31:10.092Z,75.33
2022-12-19T01:33:53.856Z,75.32
2022-12-19T01:36:30.714Z,75.29
2022-12-19T01:39:20.939Z,75.24
2022-12-19T01:42:05.469Z,75.28
2022-12-19T01:44:42.741Z,75.23
2022-12-19T01:47:16.038Z,75.29
2022-12-19T01:49:59.093Z,75.27
2022-12-19T01:52:42.689Z,75.37
2022-12-19T01:55:20.179Z,75.32
2022-12-19T01:57:57.057Z,75.31
2022-12-19T02:00:35.426Z,75.24
2022-12-19T02:03:49.526Z,75.21
2022-12-19T02:06:30.382Z,75.26
2022-12-19T02:09:18.588Z,75.23
2022-12-19T02:11:59.341Z,75.34
2022-12-19T02:14:36.961Z,75.43
2022-12-19T02:17:21.139Z,75.35
2022-12-19T02:20:11.168Z,75.30
2022-12-19T02:23:46.443Z,75.29
2022-12-19T02:26:21.351Z,75.24
2022-12-19T02:29:17.934Z,75.33
2022-12-19T02:32:06.571Z,75.24
2022-12-19T02:34:56.819Z,75.09
2022-12-19T02:37:35.884Z,75.15
2022-12-19T02:40:50.939Z,75.14
2022-12-19T02:43:45.629Z,75.13
2022-12-19T02:46:21.454Z,74.97
2022-12-19T02:49:06.802Z,74.93
2022-12-19T02:51:39.418Z,74.83
2022-12-19T02:54:18.512Z,74.86
2022-12-19T02:57:19.117Z,74.86
2022-12-19T03:00:17.212Z,74.83
2022-12-19T03:03:00.771Z,74.87
2022-12-19T03:06:23.736Z,74.86
2022-12-19T03:09:34.591Z,74.87
2022-12-19T03:12:36.548Z,74.77
2022-12-19T03:15:18.458Z,74.80
2022-12-19T03:18:10.105Z,74.77
2022-12-19T03:21:11.855Z,74.71
2022-12-19T03:23:54.981Z,74.62
2022-12-19T03:27:37.535Z,74.55
2022-12-19T03:30:15.240Z,74.73
2022-12-19T03:32:53.961Z,74.69
2022-12-19T03:35:45.486Z,74.74
2022-12-19T03:38:22.683Z,74.48
2022-12-19T03:44:29.085Z,74.52
2022-12-19T03:47:50.433Z,74.40
2022-12-19T03:50:28.560Z,74.44
2022-12-19T03:53:35.296Z,74.30
2022-12-19T03:56:39.828Z,74.41
2022-12-19T03:59:39.264Z,74.34
2022-12-19T04:02:16.259Z,74.34
2022-12-19T04:05:03.409Z,74.42
2022-12-19T04:07:41.882Z,74.25
2022-12-19T04:10:24.309Z,74.12
2022-12-19T04:13:16.278Z,74.16
2022-12-19T04:16:13.372Z,73.96
2022-12-19T04:18:54.201Z,73.82
2022-12-19T04:21:38.368Z,73.60
2022-12-19T04:24:22.016Z,73.48
2022-12-19T04:26:59.491Z,73.36
2022-12-19T04:29:36.969Z,73.43
2022-12-19T04:32:10.966Z,73.27
2022-12-19T04:34:42.986Z,73.24
2022-12-19T04:37:20.492Z,73.01
2022-12-19T04:39:51.746Z,73.07
2022-12-19T04:42:27.628Z,73.00
2022-12-19T04:44:57.725Z,73.10
2022-12-19T04:47:27.261Z,72.71
2022-12-19T04:49:56.903Z,72.62
2022-12-19T04:52:26.477Z,72.57
2022-12-19T04:55:03.503Z,72.54
2022-12-19T04:57:42.238Z,72.52
2022-12-19T05:00:15.980Z,72.55
2022-12-19T05:02:46.038Z,72.64
2022-12-19T05:05:24.508Z,72.54
2022-12-19T05:07:55.608Z,72.32
2022-12-19T05:10:26.947Z,72.36
2022-12-19T05:12:57.927Z,72.41
2022-12-19T05:15:40.519Z,72.49
2022-12-19T05:18:11.096Z,72.54
2022-12-19T05:20:40.600Z,72.40
2022-12-19T05:23:16.312Z,72.43
2022-12-19T05:25:53.993Z,72.54
2022-12-19T05:28:26.717Z,72.55
2022-12-19T05:31:05.973Z,72.42
2022-12-19T05:33:38.890Z,72.38
2022-12-19T05:36:11.762Z,72.36
2022-12-19T05:38:43.972Z,72.28
2022-12-19T05:41:20.837Z,72.20
2022-12-19T05:43:56.496Z,72.07
2022-12-19T05:46:26.319Z,71.97
2022-12-19T05:48:59.562Z,71.97
2022-12-19T05:51:29.855Z,71.62
2022-12-19T05:54:07.992Z,71.67
2022-12-19T05:56:40.969Z,71.42
2022-12-19T05:59:12.055Z,71.44
2022-12-19T06:01:42.766Z,71.33
2022-12-19T06:04:19.807Z,71.16
2022-12-19T06:06:50.189Z,71.13
2022-12-19T06:09:40.837Z,71.12
2022-12-19T06:12:10.948Z,71.11
2022-12-19T06:15:01.407Z,71.13
2022-12-19T06:17:31.404Z,71.18
2022-12-19T06:20:06.977Z,71.08
2022-12-19T06:22:42.501Z,71.49
2022-12-19T06:25:20.376Z,71.45
2022-12-19T06:27:52.909Z,71.12
2022-12-19T06:30:24.938Z,71.00
2022-12-19T06:32:54.625Z,70.98
2022-12-19T06:35:26.949Z,70.79
2022-12-19T06:41:09.869Z,70.73
2022-12-19T06:43:39.059Z,70.71
2022-12-19T06:46:08.887Z,70.72
2022-12-19T06:48:37.939Z,70.52
2022-12-19T06:51:07.433Z,70.52
2022-12-19T06:53:36.320Z,70.45
2022-12-19T06:56:05.563Z,70.49
2022-12-19T06:58:35.157Z,70.45
2022-12-19T07:01:05.279Z,70.45
2022-12-19T07:03:40.372Z,70.27
2022-12-19T07:06:09.258Z,70.30
2022-12-19T07:08:38.208Z,70.27
2022-12-19T07:11:07.091Z,70.17
2022-12-19T07:13:38.419Z,70.17
2022-12-19T07:16:08.885Z,70.22
2022-12-19T07:18:41.080Z,70.16
2022-12-19T07:21:13.834Z,70.06
2022-12-19T07:23:45.934Z,70.07
2022-12-19T07:26:14.963Z,70.12
2022-12-19T07:28:44.829Z,70.16
2022-12-19T07:31:15.988Z,70.18
2022-12-19T07:33:45.217Z,70.23
2022-12-19T07:36:14.300Z,70.24
2022-12-19T07:38:44.535Z,70.31
2022-12-19T07:41:13.486Z,70.22
2022-12-19T07:43:42.346Z,70.30
2022-12-19T07:46:14.364Z,70.30
2022-12-19T07:48:43.498Z,70.28
2022-12-19T07:51:12.357Z,70.26
2022-12-19T07:53:41.187Z,70.25
2022-12-19T07:56:10.067Z,70.25
2022-12-19T07:58:39.548Z,70.19
2022-12-19T08:01:08.762Z,70.16
2022-12-19T08:03:38.126Z,70.20
2022-12-19T08:06:08.218Z,70.13
2022-12-19T08:08:38.036Z,70.15
2022-12-19T08:11:13.404Z,70.18
2022-12-19T08:13:46.500Z,70.13
2022-12-19T08:16:16.636Z,70.16
2022-12-19T08:18:45.872Z,70.18
2022-12-19T08:21:15.108Z,70.15
2022-12-19T08:23:47.416Z,70.05
2022-12-19T08:26:31.256Z,69.94
2022-12-19T08:29:06.761Z,69.92
2022-12-19T08:31:38.131Z,69.94
2022-12-19T08:34:07.136Z,69.87
2022-12-19T08:36:38.621Z,69.66
2022-12-19T08:39:09.060Z,69.61
2022-12-19T08:41:38.005Z,69.67
2022-12-19T08:44:07.450Z,69.52
2022-12-19T08:46:36.426Z,69.55
2022-12-19T08:49:05.450Z,69.58
2022-12-19T08:51:34.891Z,69.70
2022-12-19T08:54:04.070Z,69.40
2022-12-19T08:57:01.833Z,69.35
2022-12-19T08:59:32.145Z,69.18
2022-12-19T09:02:01.815Z,69.09
2022-12-19T09:06:00.194Z,69.08
2022-12-19T09:07:20.062Z,68.93
2022-12-19T09:09:48.957Z,68.98
2022-12-19T09:12:17.930Z,68.93
2022-12-19T09:14:47.050Z,68.81
2022-12-19T09:17:16.221Z,68.71
2022-12-19T09:19:47.582Z,68.62
2022-12-19T09:22:17.370Z,68.48
2022-12-19T09:24:46.606Z,68.33
2022-12-19T09:27:15.716Z,68.24
2022-12-19T09:29:44.718Z,68.29
2022-12-19T09:32:13.696Z,68.11
2022-12-19T09:34:42.665Z,68.22
2022-12-19T09:37:17.000Z,68.24
2022-12-19T09:39:49.067Z,68.11
2022-12-19T09:43:03.423Z,68.00
2022-12-19T09:45:48.975Z,67.94
2022-12-19T09:48:24.697Z,67.74
2022-12-19T09:50:56.975Z,67.56
2022-12-19T09:54:07.112Z,67.46
2022-12-19T09:56:45.908Z,67.58
2022-12-19T09:59:49.969Z,68.04
2022-12-19T10:02:54.411Z,68.20
2022-12-19T10:07:09.302Z,67.60
2022-12-19T10:10:11.536Z,67.15
2022-12-19T10:12:45.129Z,67.17
2022-12-19T10:15:15.628Z,66.86
2022-12-19T10:17:56.805Z,67.04
2022-12-19T10:20:37.082Z,66.86
2022-12-19T10:23:48.408Z,66.25
2022-12-19T10:26:29.816Z,65.89
2022-12-19T10:29:18.951Z,65.87
2022-12-19T10:32:04.419Z,65.77
2022-12-19T10:34:44.672Z,65.73
2022-12-19T10:37:43.826Z,65.73
2022-12-19T10:40:32.219Z,65.86
2022-12-19T10:43:28.676Z,65.47
2022-12-19T10:46:17.078Z,65.13
2022-12-19T10:48:52.710Z,65.26
2022-12-19T10:51:31.977Z,64.78
2022-12-19T10:54:01.604Z,64.34
2022-12-19T10:56:37.442Z,64.23
2022-12-19T10:59:17.927Z,63.77
2022-12-19T11:01:54.171Z,63.41
2022-12-19T11:04:34.593Z,64.49
2022-12-19T11:07:03.752Z,62.92
2022-12-19T11:09:56.372Z,60.07
2022-12-19T11:14:57.699Z,58.18
2022-12-19T11:20:39.186Z,57.45
2022-12-19T11:29:27.285Z,58.04
2022-12-19T11:29:41.737Z,58.86
2022-12-19T11:29:42.410Z,58.70
2022-12-19T11:30:49.022Z,59.33
2022-12-19T11:33:20.501Z,60.00
2022-12-19T11:35:58.909Z,60.17
2022-12-19T11:38:54.255Z,60.40
2022-12-19T11:41:39.098Z,60.50
2022-12-19T11:44:28.941Z,60.55
2022-12-19T11:47:41.454Z,60.57
2022-12-19T11:50:31.185Z,60.90
2022-12-19T11:53:19.293Z,61.14
2022-12-19T11:56:01.526Z,61.32
2022-12-19T11:58:30.568Z,61.47
2022-12-19T12:01:12.752Z,61.49
2022-12-19T12:04:03.799Z,61.48
2022-12-19T12:06:44.261Z,61.72
2022-12-19T12:13:04.137Z,61.80
2022-12-19T12:20:11.265Z,61.79
2022-12-19T12:28:38.957Z,61.89
2022-12-19T12:31:22.735Z,61.98
2022-12-19T12:31:43.274Z,62.09
2022-12-19T12:31:52.736Z,62.26
2022-12-19T12:32:05.066Z,62.38
2022-12-19T12:35:21.480Z,62.39
2022-12-19T12:39:33.630Z,62.44
2022-12-19T12:42:18.367Z,62.54
2022-12-19T12:44:50.789Z,62.44
2022-12-19T12:47:29.070Z,62.65
2022-12-19T12:50:04.457Z,62.85
2022-12-19T12:53:02.646Z,62.69
2022-12-19T12:55:37.441Z,62.62
2022-12-19T12:58:47.134Z,62.65
2022-12-19T13:01:28.908Z,62.77
2022-12-19T13:04:17.952Z,62.66
2022-12-19T13:06:50.280Z,62.56
2022-12-19T13:09:27.031Z,62.78
2022-12-19T13:12:44.526Z,62.87
2022-12-19T13:15:27.621Z,62.97
2022-12-19T13:17:56.575Z,63.04
2022-12-19T13:20:27.622Z,63.09
2022-12-19T13:23:19.457Z,63.05
2022-12-19T13:25:54.055Z,62.97
2022-12-19T13:28:23.113Z,62.96
2022-12-19T13:31:19.879Z,63.17
2022-12-19T13:33:55.828Z,63.12
2022-12-19T13:39:47.802Z,63.08
2022-12-19T13:40:08.815Z,63.15
2022-12-19T13:43:25.577Z,63.26
2022-12-19T13:46:03.322Z,63.26
2022-12-19T13:48:32.547Z,63.30
2022-12-19T13:51:10.713Z,63.25
2022-12-19T13:53:42.937Z,63.25
2022-12-19T13:56:13.036Z,63.25
2022-12-19T13:58:51.662Z,63.30
2022-12-19T14:01:30.833Z,63.49
2022-12-19T14:04:09.484Z,63.50
2022-12-19T14:06:47.550Z,63.57
2022-12-19T14:11:30.476Z,63.58
2022-12-19T14:13:57.508Z,63.63
2022-12-19T14:15:52.231Z,63.63
2022-12-19T14:18:42.688Z,63.68
2022-12-19T14:22:03.652Z,63.69
2022-12-19T14:24:17.897Z,63.62
2022-12-19T14:28:17.073Z,63.60
2022-12-19T14:30:27.465Z,63.68
2022-12-19T14:33:45.424Z,63.77
2022-12-19T14:36:09.840Z,63.84
2022-12-19T14:39:22.751Z,63.90
2022-12-19T14:41:48.580Z,63.93
2022-12-19T14:52:34.427Z,63.91
2022-12-19T14:54:18.173Z,64.08
2022-12-19T14:54:33.974Z,64.16
2022-12-19T14:54:46.758Z,64.16
2022-12-19T14:59:43.469Z,64.23
2022-12-19T15:02:33.039Z,64.37
2022-12-19T15:05:16.997Z,64.35
2022-12-19T15:07:54.325Z,64.42
2022-12-19T15:11:03.944Z,64.42
2022-12-19T15:14:55.229Z,64.41
2022-12-19T15:16:31.139Z,64.49
2022-12-19T15:19:03.108Z,64.50
2022-12-19T15:21:32.392Z,64.47
2022-12-19T15:24:01.325Z,64.46
2022-12-19T15:26:35.490Z,64.50
2022-12-19T15:29:14.128Z,64.55
2022-12-19T15:31:47.201Z,64.55
2022-12-19T15:34:46.654Z,64.49
2022-12-19T15:37:16.604Z,64.49
2022-12-19T15:39:48.500Z,64.52
2022-12-19T15:42:27.298Z,64.54
2022-12-19T15:44:58.099Z,64.67
2022-12-19T15:47:35.642Z,64.67
2022-12-19T15:50:26.266Z,64.63
2022-12-19T15:52:59.146Z,64.74
2022-12-19T15:55:31.481Z,64.71
2022-12-19T15:58:03.759Z,64.76
2022-12-19T16:00:36.491Z,64.89
2022-12-19T16:03:23.586Z,65.00
2022-12-19T16:05:56.348Z,65.00
2022-12-19T16:08:26.332Z,65.02
2022-12-19T16:11:01.832Z,65.06
2022-12-19T16:13:35.260Z,65.13
2022-12-19T16:16:16.448Z,65.04
2022-12-19T16:18:47.628Z,65.05
2022-12-19T16:21:33.682Z,65.04
2022-12-19T16:24:03.345Z,65.05
2022-12-19T16:26:37.640Z,65.07
2022-12-19T16:29:21.018Z,64.97
2022-12-19T16:31:50.211Z,65.14
2022-12-19T16:34:23.589Z,65.12
2022-12-19T16:36:52.652Z,65.11
2022-12-19T16:39:21.686Z,65.09
2022-12-19T16:41:51.105Z,65.14
2022-12-19T16:44:23.892Z,65.20
2022-12-19T16:46:52.907Z,65.21
2022-12-19T16:49:23.051Z,65.12
2022-12-19T16:51:52.259Z,65.32
2022-12-19T16:54:21.174Z,65.29
2022-12-19T16:56:56.311Z,65.34
2022-12-19T16:59:34.526Z,65.27
2022-12-19T17:02:50.934Z,65.28
2022-12-19T17:05:24.556Z,65.29
2022-12-19T17:07:54.225Z,65.27
2022-12-19T17:10:30.565Z,65.28
2022-12-19T17:13:02.299Z,65.34
2022-12-19T17:15:38.869Z,65.32
2022-12-19T17:18:23.034Z,65.29
2022-12-19T17:20:51.964Z,65.41
2022-12-19T17:23:25.428Z,65.42
2022-12-19T17:25:59.811Z,65.26
2022-12-19T17:28:30.172Z,65.34
2022-12-19T17:31:04.140Z,65.43
2022-12-19T17:33:36.774Z,65.45
2022-12-19T17:36:07.666Z,65.45
2022-12-19T17:38:36.994Z,65.38
2022-12-19T17:41:06.189Z,65.44
2022-12-19T17:43:34.981Z,65.42
2022-12-19T17:46:04.437Z,65.52
2022-12-19T17:48:33.839Z,65.49
2022-12-19T17:51:03.506Z,65.41
2022-12-19T17:53:32.405Z,65.48
2022-12-19T17:56:01.319Z,65.62
2022-12-19T17:58:30.275Z,65.60
2022-12-19T18:01:00.963Z,65.57
2022-12-19T18:03:30.559Z,65.64
2022-12-19T18:05:59.630Z,65.70
2022-12-19T18:08:32.717Z,65.64
2022-12-19T18:11:04.287Z,65.69
2022-12-19T18:13:33.677Z,65.74
2022-12-19T18:16:03.989Z,65.76
2022-12-19T18:18:36.693Z,65.75
2022-12-19T18:21:06.078Z,65.74
2022-12-19T18:23:35.176Z,65.83
2022-12-19T18:26:04.429Z,65.86
2022-12-19T18:28:34.045Z,65.88
2022-12-19T18:31:23.535Z,65.88
2022-12-19T18:33:54.819Z,65.98
2022-12-19T18:36:29.292Z,66.01
2022-12-19T18:38:58.180Z,66.07
2022-12-19T18:41:27.342Z,66.05
2022-12-19T18:43:56.329Z,65.95
2022-12-19T18:46:29.859Z,66.02
2022-12-19T18:48:58.966Z,65.96
2022-12-19T18:51:29.620Z,66.07
2022-12-19T18:53:58.811Z,65.99
2022-12-19T18:56:27.848Z,66.04
2022-12-19T18:58:59.328Z,66.07
2022-12-19T19:01:29.354Z,66.00
2022-12-19T19:03:59.683Z,66.02
2022-12-19T19:06:35.757Z,66.08
2022-12-19T19:09:17.368Z,65.95
2022-12-19T19:12:06.174Z,65.89
2022-12-19T19:14:35.123Z,65.79
2022-12-19T19:17:06.459Z,65.93
2022-12-19T19:19:35.909Z,65.97
2022-12-19T19:22:07.608Z,65.80
2022-12-19T19:24:36.955Z,65.65
2022-12-19T19:27:19.037Z,65.67
2022-12-19T19:29:48.299Z,65.50
2022-12-19T19:32:18.488Z,65.54
2022-12-19T19:34:51.766Z,65.37
2022-12-19T19:37:23.255Z,65.32
2022-12-19T19:39:52.913Z,65.45
2022-12-19T19:42:22.013Z,65.47
2022-12-19T19:44:51.086Z,65.31
2022-12-19T19:47:26.802Z,65.34
2022-12-19T19:49:57.876Z,65.32
2022-12-19T19:52:28.438Z,65.36
2022-12-19T19:54:57.889Z,65.38
2022-12-19T19:57:26.932Z,65.47
2022-12-19T19:59:55.931Z,65.45
2022-12-19T20:02:25.047Z,65.48
2022-12-19T20:04:54.510Z,65.53
2022-12-19T20:07:23.384Z,65.62
2022-12-19T20:09:53.220Z,65.57
2022-12-19T20:12:25.316Z,65.48
2022-12-19T20:14:54.649Z,65.47
2022-12-19T20:17:24.193Z,65.60
2022-12-19T20:19:53.195Z,65.54
2022-12-19T20:22:25.860Z,65.62
2022-12-19T20:24:55.210Z,65.60
2022-12-19T20:27:25.927Z,65.64
2022-12-19T20:30:00.001Z,65.65
2022-12-19T20:32:29.950Z,65.71
2022-12-19T20:34:59.492Z,65.69
2022-12-19T20:37:28.557Z,65.95
2022-12-19T20:39:58.320Z,66.20
2022-12-19T20:42:27.523Z,66.29
2022-12-19T20:44:57.642Z,66.36
2022-12-19T20:47:28.651Z,66.48
2022-12-19T20:49:59.697Z,66.59
2022-12-19T20:52:29.240Z,66.69
2022-12-19T20:55:01.047Z,66.91
2022-12-19T20:57:30.836Z,67.03
2022-12-19T20:59:59.909Z,67.24
2022-12-19T21:02:52.604Z,67.67
2022-12-19T21:05:20.824Z,67.86
2022-12-19T21:07:49.813Z,68.10
2022-12-19T21:10:18.705Z,68.37
2022-12-19T21:12:48.375Z,68.53
2022-12-19T21:15:17.967Z,68.77
2022-12-19T21:17:47.604Z,68.77
2022-12-19T21:20:16.836Z,69.18
2022-12-19T21:22:46.959Z,69.64
2022-12-19T21:25:23.446Z,69.52
2022-12-19T21:27:55.307Z,69.87
2022-12-19T21:30:25.220Z,70.18
2022-12-19T21:32:56.888Z,70.19
2022-12-19T21:35:26.132Z,70.69
2022-12-19T21:37:55.089Z,70.50
2022-12-19T21:40:24.072Z,71.08
2022-12-19T21:42:53.087Z,71.49
2022-12-19T21:45:22.073Z,71.53
2022-12-19T21:47:51.046Z,71.75
2022-12-19T21:50:20.576Z,71.54
2022-12-19T21:52:54.342Z,72.06
2022-12-19T21:55:25.452Z,72.30
2022-12-19T21:57:57.353Z,72.69
2022-12-19T22:00:26.317Z,73.38
2022-12-19T22:03:15.152Z,73.03
2022-12-19T22:05:49.996Z,73.00
2022-12-19T22:08:23.224Z,73.15
2022-12-19T22:10:54.570Z,73.19
2022-12-19T22:13:23.999Z,73.12
2022-12-19T22:15:59.198Z,73.75
2022-12-19T22:18:28.416Z,73.78
2022-12-19T22:21:02.717Z,73.86
2022-12-19T22:23:32.959Z,73.91
2022-12-19T22:26:18.289Z,73.93
2022-12-19T22:28:52.050Z,74.32
2022-12-19T22:31:33.421Z,74.33
2022-12-19T22:34:06.979Z,74.38
2022-12-19T22:36:39.251Z,74.71
2022-12-19T22:39:17.977Z,74.59
2022-12-19T22:41:48.428Z,74.70
2022-12-19T22:44:26.768Z,74.69
2022-12-19T22:46:56.040Z,74.87
2022-12-19T22:49:25.124Z,74.90
2022-12-19T22:51:54.080Z,75.11
2022-12-19T22:54:23.283Z,75.12
2022-12-19T22:56:52.722Z,75.23
2022-12-19T22:59:29.418Z,75.20
2022-12-19T23:01:58.722Z,75.19
2022-12-19T23:04:28.035Z,75.13
2022-12-19T23:06:57.111Z,75.40
2022-12-19T23:09:26.325Z,75.59
2022-12-19T23:11:55.539Z,75.53
2022-12-19T23:14:24.399Z,75.47
2022-12-19T23:16:53.409Z,75.55
2022-12-19T23:19:22.483Z,75.59
2022-12-19T23:21:51.581Z,75.54
2022-12-19T23:24:22.968Z,75.56
2022-12-19T23:26:52.073Z,75.67
2022-12-19T23:29:21.562Z,75.59
2022-12-19T23:31:50.629Z,75.53
2022-12-19T23:34:23.417Z,75.65
2022-12-19T23:37:13.023Z,75.60
2022-12-19T23:39:42.650Z,75.66
2022-12-19T23:42:12.369Z,75.67
2022-12-19T23:44:41.440Z,75.60
2022-12-19T23:47:13.134Z,75.68
2022-12-19T23:49:42.489Z,75.74
2022-12-19T23:52:11.696Z,75.65
2022-12-19T23:54:40.781Z,75.66
2022-12-19T23:57:09.903Z,75.69
2022-12-19T23:59:38.810Z,75.45
